createdAt,value
2019-04-27T00:01:10.454Z,34.93
2019-04-27T00:03:45.940Z,35.07
2019-04-27T00:06:16.166Z,35.77
2019-04-27T00:08:58.209Z,36.53
2019-04-27T00:11:31.022Z,36.23
2019-04-27T00:14:00.250Z,37.23
2019-04-27T00:16:55.954Z,37.33
2019-04-27T00:19:43.813Z,41.13
2019-04-27T00:22:30.910Z,37.13
2019-04-27T00:25:00.533Z,37.80
2019-04-27T00:27:29.680Z,38.63
2019-04-27T00:29:59.024Z,38.47
2019-04-27T00:32:28.280Z,40.97
2019-04-27T00:34:57.287Z,38.43
2019-04-27T00:37:44.807Z,40.37
2019-04-27T00:40:24.006Z,39.43
2019-04-27T00:42:54.182Z,40.23
2019-04-27T00:45:26.452Z,39.97
2019-04-27T00:47:59.442Z,39.97
2019-04-27T00:50:26.546Z,37.87
2019-04-27T00:52:55.597Z,41.43
2019-04-27T00:55:24.389Z,41.70
2019-04-27T00:58:05.418Z,41.57
2019-04-27T01:01:05.473Z,38.20
2019-04-27T01:03:46.866Z,43.83
2019-04-27T01:06:15.647Z,41.47
2019-04-27T01:08:45.010Z,42.40
2019-04-27T01:11:14.237Z,39.87
2019-04-27T01:13:43.654Z,38.60
2019-04-27T01:16:15.613Z,39.77
2019-04-27T01:18:44.755Z,40.37
2019-04-27T01:21:14.446Z,41.60
2019-04-27T01:23:43.520Z,42.27
2019-04-27T01:26:30.251Z,43.57
2019-04-27T01:29:06.091Z,49.45
2019-04-27T01:31:35.050Z,45.07
2019-04-27T01:34:04.294Z,45.53
2019-04-27T01:36:33.800Z,43.07
2019-04-27T01:39:04.155Z,44.40
2019-04-27T01:41:33.019Z,43.40
2019-04-27T01:44:03.580Z,41.60
2019-04-27T01:46:32.402Z,38.37
2019-04-27T01:49:02.168Z,40.60
2019-04-27T01:51:31.226Z,39.67
2019-04-27T01:54:00.066Z,43.70
2019-04-27T01:56:29.527Z,43.43
2019-04-27T01:58:59.550Z,41.30
2019-04-27T02:01:45.869Z,42.50
2019-04-27T02:04:34.083Z,41.53
2019-04-27T02:07:05.780Z,45.93
2019-04-27T02:09:34.754Z,40.63
2019-04-27T02:12:03.868Z,41.73
2019-04-27T02:14:32.879Z,43.73
2019-04-27T02:17:01.743Z,46.60
2019-04-27T02:19:30.653Z,41.40
2019-04-27T02:21:59.812Z,44.37
2019-04-27T02:24:29.170Z,44.23
2019-04-27T02:26:58.752Z,40.30
2019-04-27T02:29:34.572Z,36.37
2019-04-27T02:32:11.513Z,39.53
2019-04-27T02:35:00.181Z,43.60
2019-04-27T02:37:30.587Z,42.43
2019-04-27T02:40:00.218Z,39.57
2019-04-27T02:42:34.829Z,41.90
2019-04-27T02:45:04.428Z,40.63
2019-04-27T02:47:33.700Z,38.90
2019-04-27T02:50:02.734Z,43.77
2019-04-27T02:52:42.546Z,40.10
2019-04-27T02:55:11.767Z,37.00
2019-04-27T02:57:40.667Z,35.93
2019-04-27T03:00:10.724Z,37.53
2019-04-27T03:02:44.226Z,41.53
2019-04-27T03:05:24.216Z,40.83
2019-04-27T03:07:53.511Z,43.53
2019-04-27T03:10:23.126Z,41.13
2019-04-27T03:13:00.117Z,42.00
2019-04-27T03:15:49.733Z,42.80
2019-04-27T03:18:32.909Z,42.40
2019-04-27T03:21:06.141Z,38.77
2019-04-27T03:23:35.046Z,39.93
2019-04-27T03:26:22.970Z,41.20
2019-04-27T03:28:53.158Z,42.10
2019-04-27T03:31:22.433Z,40.20
2019-04-27T03:33:58.678Z,42.70
2019-04-27T03:36:22.854Z,44.70
2019-04-27T03:38:52.522Z,44.63
2019-04-27T03:41:21.660Z,43.87
2019-04-27T03:43:51.666Z,41.80
2019-04-27T03:46:20.708Z,42.43
2019-04-27T03:48:49.938Z,39.97
2019-04-27T03:51:29.782Z,40.23
2019-04-27T03:54:03.341Z,43.60
2019-04-27T03:56:39.564Z,43.07
2019-04-27T03:59:16.171Z,42.17
2019-04-27T04:01:44.953Z,41.57
2019-04-27T04:04:14.100Z,43.17
2019-04-27T04:06:43.271Z,39.00
2019-04-27T04:09:12.899Z,41.37
2019-04-27T04:12:02.236Z,43.43
2019-04-27T04:14:31.702Z,40.00
2019-04-27T04:17:03.684Z,38.90
2019-04-27T04:19:47.973Z,40.13
2019-04-27T04:22:03.629Z,40.57
2019-04-27T04:24:32.687Z,40.67
2019-04-27T04:27:01.530Z,38.77
2019-04-27T04:29:30.873Z,38.30
2019-04-27T04:32:00.558Z,36.30
2019-04-27T04:34:30.070Z,39.70
2019-04-27T04:37:00.599Z,37.23
2019-04-27T04:39:30.059Z,40.00
2019-04-27T04:42:15.394Z,35.20
2019-04-27T04:45:17.336Z,38.87
2019-04-27T04:48:09.814Z,38.60
2019-04-27T04:50:39.759Z,36.77
2019-04-27T04:53:12.534Z,43.17
2019-04-27T04:55:39.703Z,41.27
2019-04-27T04:58:09.431Z,37.20
2019-04-27T05:00:40.048Z,39.40
2019-04-27T05:03:09.509Z,42.00
2019-04-27T05:05:41.082Z,36.20
2019-04-27T05:08:09.270Z,39.70
2019-04-27T05:10:39.463Z,42.97
2019-04-27T05:13:09.461Z,46.93
2019-04-27T05:15:39.487Z,38.60
2019-04-27T05:18:09.284Z,41.20
2019-04-27T05:20:54.721Z,40.43
2019-04-27T05:23:24.067Z,39.40
2019-04-27T05:25:53.200Z,38.97
2019-04-27T05:28:22.373Z,38.03
2019-04-27T05:30:51.717Z,36.77
2019-04-27T05:33:20.868Z,38.00
2019-04-27T05:35:50.030Z,36.67
2019-04-27T05:38:19.441Z,43.95
2019-04-27T05:40:49.942Z,40.00
2019-04-27T05:43:21.077Z,34.93
2019-04-27T05:46:39.655Z,38.30
2019-04-27T05:49:12.230Z,38.70
2019-04-27T05:51:42.034Z,39.07
2019-04-27T05:54:11.938Z,37.63
2019-04-27T05:56:40.888Z,39.47
2019-04-27T05:59:10.169Z,39.27
2019-04-27T06:01:39.264Z,37.10
2019-04-27T06:04:09.048Z,40.33
2019-04-27T06:06:39.875Z,34.53
2019-04-27T06:09:09.622Z,37.50
2019-04-27T06:11:40.007Z,34.67
2019-04-27T06:14:09.811Z,39.17
2019-04-27T06:16:39.460Z,34.53
2019-04-27T06:19:09.605Z,35.10
2019-04-27T06:21:40.118Z,32.33
2019-04-27T06:24:09.574Z,35.27
2019-04-27T06:26:39.956Z,34.43
2019-04-27T06:29:09.578Z,32.60
2019-04-27T06:31:39.656Z,30.23
2019-04-27T06:34:09.810Z,28.07
2019-04-27T06:36:39.157Z,28.23
2019-04-27T06:39:09.798Z,32.13
2019-04-27T06:41:40.043Z,27.60
2019-04-27T06:44:11.375Z,26.53
2019-04-27T06:46:40.698Z,25.00
2019-04-27T06:49:11.011Z,22.90
2019-04-27T06:51:40.763Z,27.83
2019-04-27T06:54:09.884Z,24.10
2019-04-27T06:56:39.027Z,22.53
2019-04-27T06:59:08.856Z,21.20
2019-04-27T07:01:39.106Z,21.00
2019-04-27T07:04:10.732Z,23.93
2019-04-27T07:06:52.506Z,24.67
2019-04-27T07:09:10.269Z,23.30
2019-04-27T07:11:39.847Z,21.93
2019-04-27T07:14:11.165Z,21.07
2019-04-27T07:16:39.779Z,18.33
2019-04-27T07:19:09.442Z,20.77
2019-04-27T07:21:39.959Z,16.77
2019-04-27T07:24:09.290Z,19.67
2019-04-27T07:26:39.060Z,21.90
2019-04-27T07:29:09.617Z,21.10
2019-04-27T07:31:40.131Z,20.00
2019-04-27T07:34:09.487Z,22.90
2019-04-27T07:36:39.323Z,19.27
2019-04-27T07:39:11.372Z,22.23
2019-04-27T07:41:40.206Z,18.37
2019-04-27T07:44:21.800Z,17.20
2019-04-27T07:47:09.724Z,15.77
2019-04-27T07:49:39.237Z,16.43
2019-04-27T07:52:08.744Z,14.63
2019-04-27T07:54:38.505Z,16.90
2019-04-27T07:57:09.856Z,15.43
2019-04-27T07:59:41.459Z,15.37
2019-04-27T08:02:11.015Z,17.90
2019-04-27T08:04:40.498Z,17.10
2019-04-27T08:07:09.617Z,14.93
2019-04-27T08:09:39.758Z,19.50
2019-04-27T08:12:10.735Z,13.07
2019-04-27T08:14:39.805Z,11.57
2019-04-27T08:17:09.783Z,11.13
2019-04-27T08:19:39.464Z,9.93
2019-04-27T08:22:09.653Z,9.50
2019-04-27T08:24:39.668Z,11.33
2019-04-27T09:34:46.778Z,3.93
2019-04-27T09:37:16.048Z,5.90
2019-04-27T09:39:46.063Z,3.50
2019-04-27T09:42:16.772Z,3.10
2019-04-27T09:44:47.630Z,4.70
2019-04-27T09:47:16.842Z,3.23
2019-04-27T09:49:46.165Z,6.73
2019-04-27T09:52:24.480Z,2.90
2019-04-27T09:54:48.062Z,3.97
2019-04-27T09:57:17.300Z,2.80
2019-04-27T09:59:46.727Z,2.80
2019-04-27T10:02:16.513Z,2.47
2019-04-27T10:04:46.198Z,5.30
2019-04-27T10:07:16.518Z,2.13
2019-04-27T10:09:47.491Z,2.30
2019-04-27T10:12:16.697Z,2.00
2019-04-27T10:14:47.704Z,2.23
2019-04-27T10:17:17.234Z,2.37
2019-04-27T10:19:46.201Z,1.70
2019-04-27T10:22:15.940Z,2.30
2019-04-27T10:24:45.725Z,2.10
2019-04-27T10:27:16.164Z,1.83
2019-04-27T10:29:46.807Z,2.07
2019-04-27T10:32:16.914Z,2.00
2019-04-27T10:34:45.778Z,3.17
2019-04-27T10:37:16.065Z,1.47
2019-04-27T10:39:46.176Z,4.73
2019-04-27T10:42:15.144Z,2.80
2019-04-27T10:44:46.092Z,2.93
2019-04-27T10:47:16.357Z,3.70
2019-04-27T10:50:05.924Z,2.07
2019-04-27T10:52:35.286Z,1.70
2019-04-27T10:55:05.996Z,2.10
2019-04-27T10:57:35.048Z,2.50
2019-04-27T11:00:06.780Z,2.80
2019-04-27T11:02:36.039Z,1.80
2019-04-27T11:05:13.072Z,2.33
2019-04-27T11:07:41.993Z,2.03
2019-04-27T11:10:12.046Z,1.57
2019-04-27T11:12:41.107Z,1.97
2019-04-27T11:15:11.442Z,1.80
2019-04-27T11:17:40.856Z,1.43
2019-04-27T11:20:10.526Z,2.43
2019-04-27T11:22:39.574Z,1.53
2019-04-27T11:25:08.722Z,1.47
2019-04-27T11:27:37.535Z,1.90
2019-04-27T11:30:07.676Z,1.70
2019-04-27T11:32:36.842Z,2.40
2019-04-27T11:35:31.766Z,4.43
2019-04-27T11:38:01.398Z,1.70
2019-04-27T11:40:31.118Z,1.73
2019-04-27T11:43:00.385Z,1.40
2019-04-27T11:45:29.533Z,2.00
2019-04-27T11:47:58.699Z,1.77
2019-04-27T11:50:28.246Z,2.37
2019-04-27T11:52:57.731Z,1.30
2019-04-27T11:55:27.348Z,1.10
2019-04-27T11:57:56.977Z,1.20
2019-04-27T12:00:27.672Z,4.33
2019-04-27T12:02:56.966Z,1.23
2019-04-27T12:05:26.124Z,3.87
2019-04-27T12:07:56.139Z,1.20
2019-04-27T12:10:26.293Z,1.20
2019-04-27T12:12:56.415Z,1.17
2019-04-27T12:15:26.217Z,0.97
2019-04-27T12:17:56.178Z,1.13
2019-04-27T12:20:25.880Z,1.40
2019-04-27T12:22:55.204Z,1.10
2019-04-27T12:25:24.052Z,2.83
2019-04-27T12:28:09.125Z,2.83
2019-04-27T12:30:54.198Z,1.40
2019-04-27T12:33:23.344Z,1.20
2019-04-27T12:35:52.491Z,0.97
2019-04-27T12:38:21.420Z,1.10
2019-04-27T12:40:50.689Z,1.50
2019-04-27T12:43:19.797Z,1.10
2019-04-27T12:45:50.862Z,1.10
2019-04-27T12:48:19.670Z,2.30
2019-04-27T12:50:48.957Z,0.97
2019-04-27T12:53:28.393Z,1.00
2019-04-27T12:56:25.927Z,1.00
2019-04-27T12:59:22.994Z,1.30
2019-04-27T13:01:52.370Z,1.00
2019-04-27T13:04:21.276Z,1.47
2019-04-27T13:06:50.398Z,1.33
2019-04-27T13:09:19.938Z,1.30
2019-04-27T13:11:49.303Z,3.30
2019-04-27T13:14:18.744Z,5.60
2019-04-27T13:16:48.035Z,5.73
2019-04-27T13:19:17.382Z,4.73
2019-04-27T13:21:46.964Z,4.47
2019-04-27T13:24:16.207Z,4.20
2019-04-27T13:26:45.871Z,4.13
2019-04-27T13:29:16.507Z,3.63
2019-04-27T13:31:45.282Z,3.30
2019-04-27T13:34:15.910Z,2.93
2019-04-27T13:36:45.803Z,2.93
2019-04-27T13:39:15.785Z,2.60
2019-04-27T13:41:46.312Z,2.80
2019-04-27T13:44:16.105Z,2.37
2019-04-27T13:47:03.614Z,5.03
2019-04-27T13:49:46.183Z,2.50
2019-04-27T13:52:17.692Z,2.03
2019-04-27T13:54:47.160Z,2.33
2019-04-27T13:57:18.357Z,2.80
2019-04-27T13:59:47.126Z,3.20
2019-04-27T14:02:16.213Z,3.30
2019-04-27T14:04:45.698Z,3.13
2019-04-27T14:07:14.600Z,3.17
2019-04-27T14:09:43.933Z,3.90
2019-04-27T14:12:22.084Z,4.53
2019-04-27T14:14:51.373Z,6.90
2019-04-27T14:17:20.782Z,4.40
2019-04-27T14:19:51.219Z,4.80
2019-04-27T14:22:20.301Z,4.27
2019-04-27T14:24:49.187Z,4.70
2019-04-27T14:27:19.872Z,5.37
2019-04-27T14:29:49.030Z,5.83
2019-04-27T14:32:18.798Z,5.40
2019-04-27T14:34:50.058Z,5.97
2019-04-27T14:37:19.240Z,9.30
2019-04-27T14:39:48.877Z,7.47
2019-04-27T14:42:19.187Z,6.97
2019-04-27T14:44:48.927Z,7.40
2019-04-27T14:47:18.789Z,6.60
2019-04-27T14:49:49.148Z,6.93
2019-04-27T14:52:19.044Z,8.05
2019-04-27T14:54:50.712Z,7.40
2019-04-27T14:57:20.500Z,7.47
2019-04-27T14:59:49.831Z,7.57
2019-04-27T15:02:18.787Z,7.23
2019-04-27T15:04:47.705Z,7.33
2019-04-27T15:07:16.528Z,7.17
2019-04-27T15:09:45.343Z,7.57
2019-04-27T15:12:15.756Z,8.07
2019-04-27T15:14:45.136Z,7.73
2019-04-27T15:17:17.730Z,8.33
2019-04-27T15:19:52.725Z,8.40
2019-04-27T15:22:25.655Z,8.43
2019-04-27T15:25:06.391Z,7.70
2019-04-27T15:27:37.191Z,9.77
2019-04-27T15:30:25.849Z,7.50
2019-04-27T15:33:15.995Z,7.13
2019-04-27T15:35:46.593Z,7.67
2019-04-27T15:38:20.353Z,7.27
2019-04-27T15:41:09.770Z,7.63
2019-04-27T15:43:40.500Z,8.57
2019-04-27T15:46:09.340Z,8.20
2019-04-27T15:48:38.627Z,8.63
2019-04-27T15:51:16.241Z,9.17
2019-04-27T15:53:40.833Z,8.60
2019-04-27T15:56:09.409Z,8.83
2019-04-27T15:58:38.583Z,9.37
2019-04-27T16:01:11.278Z,9.13
2019-04-27T16:03:39.120Z,8.50
2019-04-27T16:06:11.691Z,9.17
2019-04-27T16:08:45.265Z,9.90
2019-04-27T16:11:16.094Z,10.27
2019-04-27T16:13:40.255Z,10.37
2019-04-27T16:16:09.354Z,10.90
2019-04-27T16:18:38.817Z,12.37
2019-04-27T16:21:10.774Z,10.77
2019-04-27T16:23:42.820Z,11.28
2019-04-27T16:26:15.014Z,10.37
2019-04-27T16:28:42.999Z,9.97
2019-04-27T16:31:12.657Z,10.10
2019-04-27T16:33:41.420Z,11.00
2019-04-27T16:36:10.848Z,10.60
2019-04-27T16:38:52.640Z,9.70
2019-04-27T16:41:21.396Z,8.07
2019-04-27T16:43:50.609Z,7.77
2019-04-27T16:46:21.416Z,12.77
2019-04-27T16:48:49.914Z,8.07
2019-04-27T16:51:18.831Z,8.90
2019-04-27T16:53:48.092Z,7.60
2019-04-27T16:56:20.482Z,6.70
2019-04-27T16:58:56.250Z,6.83
2019-04-27T17:01:30.002Z,6.70
2019-04-27T17:03:59.357Z,7.03
2019-04-27T17:06:29.656Z,8.43
2019-04-27T17:09:05.425Z,8.53
2019-04-27T17:11:30.269Z,8.73
2019-04-27T17:14:15.153Z,8.23
2019-04-27T17:17:12.480Z,8.50
2019-04-27T17:19:45.879Z,8.77
2019-04-27T17:22:16.331Z,9.83
2019-04-27T17:24:47.419Z,9.53
2019-04-27T17:27:22.851Z,10.83
2019-04-27T17:29:57.372Z,9.93
2019-04-27T17:32:38.948Z,13.43
2019-04-27T17:35:12.957Z,15.77
2019-04-27T17:37:39.091Z,17.47
2019-04-27T17:40:09.534Z,14.67
2019-04-27T17:42:39.218Z,11.03
2019-04-27T17:45:09.025Z,11.12
2019-04-27T17:47:38.882Z,10.30
2019-04-27T17:50:09.300Z,11.40
2019-04-27T17:52:39.780Z,11.13
2019-04-27T17:55:09.061Z,5.17
2019-04-27T17:57:39.192Z,4.50
2019-04-27T18:00:09.607Z,4.10
2019-04-27T18:02:42.427Z,3.70
2019-04-27T18:05:13.647Z,4.10
2019-04-27T18:07:44.138Z,4.00
2019-04-27T18:10:12.923Z,3.20
2019-04-27T18:12:44.495Z,4.00
2019-04-27T18:15:14.523Z,3.97
2019-04-27T18:17:50.045Z,5.20
2019-04-27T18:20:20.687Z,10.03
2019-04-27T18:22:53.612Z,3.70
2019-04-27T18:25:22.503Z,3.87
2019-04-27T18:28:08.056Z,3.53
2019-04-27T18:31:01.431Z,3.10
2019-04-27T18:33:32.711Z,4.30
2019-04-27T18:36:05.618Z,3.50
2019-04-27T18:38:35.410Z,3.90
2019-04-27T18:41:07.999Z,3.20
2019-04-27T18:43:33.983Z,3.23
2019-04-27T18:46:22.033Z,3.20
2019-04-27T18:49:05.700Z,3.77
2019-04-27T18:51:41.394Z,3.23
2019-04-27T18:54:10.521Z,2.30
2019-04-27T18:56:41.554Z,2.40
2019-04-27T18:59:09.967Z,2.50
2019-04-27T19:01:38.750Z,2.27
2019-04-27T19:04:08.683Z,3.23
2019-04-27T19:06:39.094Z,4.77
2019-04-27T19:09:08.509Z,4.63
2019-04-27T19:11:38.443Z,2.60
2019-04-27T19:14:08.282Z,2.77
2019-04-27T19:16:38.343Z,2.40
2019-04-27T19:19:08.714Z,2.07
2019-04-27T19:21:39.262Z,3.70
2019-04-27T19:24:09.057Z,2.43
2019-04-27T19:26:49.121Z,2.30
2019-04-27T19:29:21.684Z,2.20
2019-04-27T19:31:54.911Z,2.20
2019-04-27T19:34:24.011Z,2.37
2019-04-27T19:36:53.515Z,2.30
2019-04-27T19:39:22.738Z,1.90
2019-04-27T19:42:00.291Z,1.97
2019-04-27T19:44:22.472Z,2.17
2019-04-27T19:46:51.966Z,1.97
2019-04-27T19:49:21.363Z,2.30
2019-04-27T19:51:50.478Z,2.27
2019-04-27T19:54:19.511Z,1.93
2019-04-27T19:56:50.012Z,1.77
2019-04-27T19:59:28.072Z,2.20
2019-04-27T20:01:59.408Z,2.73
2019-04-27T20:04:30.803Z,2.30
2019-04-27T20:07:00.121Z,3.50
2019-04-27T20:09:49.996Z,3.23
2019-04-27T20:12:18.688Z,2.00
2019-04-27T20:14:56.599Z,3.27
2019-04-27T20:17:26.783Z,2.77
2019-04-27T20:19:56.197Z,2.23
2019-04-27T20:22:25.327Z,2.43
2019-04-27T20:24:55.074Z,2.47
2019-04-27T20:27:23.837Z,2.87
2019-04-27T20:29:52.923Z,2.40
2019-04-27T20:32:21.835Z,4.27
2019-04-27T20:34:51.315Z,3.80
2019-04-27T20:37:21.041Z,2.13
2019-04-27T20:39:51.400Z,3.67
2019-04-27T20:42:21.259Z,2.80
2019-04-27T20:44:51.574Z,2.70
2019-04-27T20:47:21.178Z,3.13
2019-04-27T20:49:50.315Z,3.40
2019-04-27T20:52:34.783Z,3.17
2019-04-27T20:55:03.858Z,6.43
2019-04-27T20:57:32.731Z,2.67
2019-04-27T21:00:02.111Z,2.57
2019-04-27T21:02:53.263Z,3.00
2019-04-27T21:05:34.383Z,2.90
2019-04-27T21:08:07.544Z,3.10
2019-04-27T21:10:36.727Z,3.67
2019-04-27T21:13:05.624Z,6.27
2019-04-27T21:15:34.643Z,3.77
2019-04-27T21:18:03.437Z,4.03
2019-04-27T21:20:32.556Z,4.67
2019-04-27T21:23:01.966Z,3.87
2019-04-27T21:25:33.535Z,3.60
2019-04-27T21:28:14.854Z,3.47
2019-04-27T21:30:33.417Z,4.17
2019-04-27T21:33:02.467Z,3.43
2019-04-27T21:35:31.754Z,3.50
2019-04-27T21:38:01.554Z,4.07
2019-04-27T21:40:32.401Z,5.33
2019-04-27T21:43:01.247Z,3.87
2019-04-27T21:45:31.775Z,4.00
2019-04-27T21:48:00.964Z,5.43
2019-04-27T21:50:31.492Z,3.67
2019-04-27T21:53:57.251Z,3.93
2019-04-27T21:56:26.790Z,3.87
2019-04-27T21:58:55.648Z,3.40
2019-04-27T22:01:31.859Z,3.50
2019-04-27T22:04:01.843Z,5.37
2019-04-27T22:06:30.678Z,3.50
2019-04-27T22:09:01.313Z,3.53
2019-04-27T22:11:31.909Z,3.40
2019-04-27T22:14:01.395Z,4.07
2019-04-27T22:16:31.517Z,3.00
2019-04-27T22:19:01.965Z,3.30
2019-04-27T22:21:31.670Z,3.67
2019-04-27T22:24:18.850Z,3.83
2019-04-27T22:26:48.224Z,3.27
2019-04-27T22:29:17.599Z,5.33
2019-04-27T22:31:46.773Z,3.90
2019-04-27T22:34:15.686Z,3.53
2019-04-27T22:36:44.845Z,5.03
2019-04-27T22:39:28.794Z,3.40
2019-04-27T22:42:16.335Z,3.77
2019-04-27T22:44:52.771Z,4.07
2019-04-27T22:47:21.705Z,5.63
2019-04-27T22:49:51.308Z,4.23
2019-04-27T22:52:21.854Z,5.17
2019-04-27T22:54:51.411Z,8.67
2019-04-27T22:57:42.369Z,6.27
2019-04-27T23:00:31.077Z,6.63
2019-04-27T23:03:03.292Z,5.50
2019-04-27T23:05:32.908Z,7.77
2019-04-27T23:08:02.124Z,9.10
2019-04-27T23:10:31.572Z,9.37
2019-04-27T23:13:01.026Z,7.67
2019-04-27T23:15:51.719Z,8.63
2019-04-27T23:18:22.658Z,7.13
2019-04-27T23:20:52.327Z,6.93
2019-04-27T23:23:21.827Z,8.33
2019-04-27T23:25:51.405Z,9.93
2019-04-27T23:28:20.872Z,7.60
2019-04-27T23:31:15.925Z,10.63
2019-04-27T23:33:47.973Z,11.50
2019-04-27T23:36:17.134Z,8.27
2019-04-27T23:38:46.363Z,13.53
2019-04-27T23:41:15.273Z,9.90
2019-04-27T23:43:44.674Z,10.27
2019-04-27T23:46:13.958Z,10.17
2019-04-27T23:48:43.202Z,11.57
2019-04-27T23:51:40.824Z,7.83
2019-04-27T23:54:11.545Z,12.73
2019-04-27T23:56:42.019Z,7.80
2019-04-27T23:59:23.861Z,12.77
